Time;durP1;ratioP1;P1;durP2;ratioP2;P2;SDS_P1;SDS_P2;PMS_P1;PMS_P2;Temp;Humidity;BMP_temperature;BMP_pressure;BME280_temperature;BME280_humidity;BME280_pressure;Samples;Min_cycle;Max_cycle;Signal;HPM_P1;HPM_P2
2023/06/13 00:00:12;;;;;;;8.25;3.67;;;;;;;;;;5044631;28;20061;-62
2023/06/13 00:02:44;;;;;;;6.72;3.45;;;;;;;;;;5035446;28;20060;-63
2023/06/13 00:05:16;;;;;;;6.03;2.85;;;;;;;;;;5034955;28;20064;-63
2023/06/13 00:07:49;;;;;;;5.55;2.63;;;;;;;;;;5054133;28;20053;-63
2023/06/13 00:10:19;;;;;;;7.97;3.75;;;;;;;;;;5001792;28;20044;-63
2023/06/13 00:12:51;;;;;;;8.10;3.20;;;;;;;;;;5035270;28;20056;-63
2023/06/13 00:15:21;;;;;;;5.50;2.63;;;;;;;;;;5053282;28;20037;-63
2023/06/13 00:17:53;;;;;;;7.57;2.50;;;;;;;;;;5034409;28;20052;-63
2023/06/13 00:20:24;;;;;;;6.03;2.75;;;;;;;;;;5053280;28;20045;-63
2023/06/13 00:22:56;;;;;;;12.02;4.07;;;;;;;;;;5052904;28;20045;-63
2023/06/13 00:25:26;;;;;;;11.38;3.95;;;;;;;;;;5053115;28;20378;-63
2023/06/13 00:27:56;;;;;;;7.45;3.42;;;;;;;;;;5053383;28;20043;-63
2023/06/13 00:30:27;;;;;;;5.25;2.25;;;;;;;;;;5053180;28;20389;-63
2023/06/13 00:32:59;;;;;;;7.60;3.08;;;;;;;;;;5034504;28;20061;-63
2023/06/13 00:35:31;;;;;;;5.95;2.67;;;;;;;;;;5053156;28;20060;-63
2023/06/13 00:38:02;;;;;;;9.32;2.85;;;;;;;;;;5013668;28;20049;-63
2023/06/13 00:40:32;;;;;;;7.25;2.67;;;;;;;;;;5030232;28;20076;-63
2023/06/13 00:43:02;;;;;;;6.90;2.42;;;;;;;;;;5013965;28;20752;-63
2023/06/13 00:45:34;;;;;;;6.05;2.78;;;;;;;;;;5030525;28;20141;-62
2023/06/13 00:48:06;;;;;;;8.02;2.90;;;;;;;;;;4994021;28;20054;-63
2023/06/13 00:50:43;;;;;;;5.88;2.67;;;;;;;;;;4978846;28;20438;-64
2023/06/13 00:53:17;;;;;;;10.13;2.47;;;;;;;;;;5010605;28;20058;-62
2023/06/13 00:55:50;;;;;;;6.80;2.58;;;;;;;;;;5010174;28;20498;-62
2023/06/13 00:58:21;;;;;;;6.75;2.92;;;;;;;;;;5010525;28;20058;-63
2023/06/13 01:00:52;;;;;;;12.57;4.93;;;;;;;;;;5010084;28;20049;-63
2023/06/13 01:03:23;;;;;;;11.55;3.92;;;;;;;;;;5010024;28;20057;-62
2023/06/13 01:05:53;;;;;;;11.13;3.17;;;;;;;;;;4971003;28;20763;-62
2023/06/13 01:08:27;;;;;;;17.52;5.00;;;;;;;;;;4939021;28;20074;-63
2023/06/13 01:11:21;;;;;;;16.48;4.47;;;;;;;;;;4987116;28;20058;-62
2023/06/13 01:13:54;;;;;;;6.88;3.08;;;;;;;;;;4935977;29;20051;-63
2023/06/13 01:17:24;;;;;;;21.80;7.47;;;;;;;;;;4970715;28;20125;-64
2023/06/13 01:19:59;;;;;;;6.13;2.40;;;;;;;;;;4875576;29;20106;-63
2023/06/13 01:22:52;;;;;;;7.10;2.78;;;;;;;;;;4875919;29;20069;-63
2023/06/13 01:25:30;;;;;;;6.60;2.08;;;;;;;;;;4869334;29;20518;-63
2023/06/13 01:28:00;;;;;;;9.32;2.63;;;;;;;;;;4872221;29;20077;-63
2023/06/13 01:30:34;;;;;;;8.55;2.70;;;;;;;;;;4871740;29;20430;-62
2023/06/13 01:33:06;;;;;;;6.13;3.00;;;;;;;;;;4857400;29;20072;-63
2023/06/13 01:35:37;;;;;;;8.15;3.15;;;;;;;;;;4852824;29;20050;-62
2023/06/13 01:38:09;;;;;;;6.05;3.08;;;;;;;;;;4868409;29;20058;-63
2023/06/13 01:40:39;;;;;;;6.75;3.00;;;;;;;;;;4844425;29;20057;-63
2023/06/13 01:43:09;;;;;;;6.65;3.03;;;;;;;;;;4863530;29;20063;-63
2023/06/13 01:45:41;;;;;;;5.20;2.65;;;;;;;;;;4838174;29;20068;-63
2023/06/13 01:48:33;;;;;;;5.40;2.33;;;;;;;;;;4838660;29;20061;-64
2023/06/13 01:51:22;;;;;;;7.63;3.28;;;;;;;;;;4832867;29;20050;-63
2023/06/13 01:54:01;;;;;;;5.72;2.50;;;;;;;;;;4876153;29;20071;-63
2023/06/13 01:56:34;;;;;;;6.93;3.28;;;;;;;;;;4936079;28;20059;-63
2023/06/13 01:59:07;;;;;;;5.32;2.60;;;;;;;;;;4899745;29;20503;-64
2023/06/13 02:01:39;;;;;;;5.97;2.42;;;;;;;;;;4912590;29;20056;-63
2023/06/13 02:04:09;;;;;;;6.90;2.90;;;;;;;;;;4897700;29;20060;-61
2023/06/13 02:06:40;;;;;;;7.85;3.47;;;;;;;;;;4893806;29;20060;-63
2023/06/13 02:09:11;;;;;;;7.20;3.05;;;;;;;;;;4878860;29;20072;-63
2023/06/13 02:11:45;;;;;;;6.95;2.58;;;;;;;;;;4864632;29;20060;-62
2023/06/13 02:14:17;;;;;;;7.28;3.10;;;;;;;;;;4908980;29;20063;-63
2023/06/13 02:16:48;;;;;;;6.18;2.53;;;;;;;;;;4896934;29;20051;-63
2023/06/13 02:19:19;;;;;;;8.32;3.47;;;;;;;;;;4912361;29;20416;-62
2023/06/13 02:21:49;;;;;;;5.85;3.00;;;;;;;;;;4865974;29;20052;-62
2023/06/13 02:24:20;;;;;;;7.57;2.80;;;;;;;;;;4908348;29;20059;-63
2023/06/13 02:26:51;;;;;;;6.78;3.20;;;;;;;;;;4893317;29;20445;-62
2023/06/13 02:29:21;;;;;;;7.80;2.75;;;;;;;;;;4895610;29;20060;-63
2023/06/13 02:31:51;;;;;;;6.03;2.85;;;;;;;;;;4912070;29;20170;-62
2023/06/13 02:34:22;;;;;;;7.15;2.83;;;;;;;;;;4912325;29;20056;-63
2023/06/13 02:36:52;;;;;;;7.97;2.92;;;;;;;;;;4874356;29;20056;-62
2023/06/13 02:39:23;;;;;;;8.32;3.10;;;;;;;;;;4876287;29;20072;-63
2023/06/13 02:41:54;;;;;;;4.57;1.90;;;;;;;;;;4912112;29;20061;-63
2023/06/13 02:44:24;;;;;;;7.18;2.40;;;;;;;;;;4905734;29;20052;-63
2023/06/13 02:46:56;;;;;;;8.15;2.80;;;;;;;;;;4915336;29;20070;-63
2023/06/13 02:49:26;;;;;;;4.93;2.35;;;;;;;;;;4916492;29;20126;-63
2023/06/13 02:51:57;;;;;;;5.70;2.13;;;;;;;;;;4925787;29;20516;-63
2023/06/13 02:54:27;;;;;;;6.80;2.53;;;;;;;;;;4900290;29;20048;-63
2023/06/13 02:56:57;;;;;;;5.18;2.22;;;;;;;;;;4896831;29;20097;-63
2023/06/13 02:59:27;;;;;;;8.70;2.38;;;;;;;;;;4881504;29;20086;-63
2023/06/13 03:01:58;;;;;;;11.18;3.60;;;;;;;;;;4887209;29;20053;-63
2023/06/13 03:04:28;;;;;;;6.18;2.78;;;;;;;;;;4870105;29;20094;-63
2023/06/13 03:07:00;;;;;;;5.22;2.17;;;;;;;;;;4896780;29;20218;-62
2023/06/13 03:09:30;;;;;;;5.95;3.28;;;;;;;;;;4859510;29;20060;-62
2023/06/13 03:12:02;;;;;;;4.07;1.73;;;;;;;;;;4847296;29;20056;-62
2023/06/13 03:14:34;;;;;;;6.35;2.42;;;;;;;;;;4850224;29;20065;-62
2023/06/13 03:17:06;;;;;;;6.32;2.63;;;;;;;;;;4840930;29;20094;-63
2023/06/13 03:19:37;;;;;;;5.35;2.30;;;;;;;;;;4878059;29;20433;-62
2023/06/13 03:22:13;;;;;;;2.85;1.10;;;;;;;;;;4877344;29;20105;-63
2023/06/13 03:24:47;;;;;;;5.45;2.28;;;;;;;;;;4856149;29;20058;-63
2023/06/13 03:27:18;;;;;;;4.93;2.13;;;;;;;;;;4840766;29;20061;-62
2023/06/13 03:29:49;;;;;;;5.00;2.05;;;;;;;;;;4841195;29;20529;-62
2023/06/13 03:32:19;;;;;;;7.50;2.50;;;;;;;;;;4840957;29;20065;-62
2023/06/13 03:34:52;;;;;;;5.50;2.28;;;;;;;;;;4822217;29;20069;-63
2023/06/13 03:37:22;;;;;;;5.07;2.13;;;;;;;;;;4836553;29;20054;-62
2023/06/13 03:39:53;;;;;;;7.03;2.00;;;;;;;;;;4826403;29;20059;-62
2023/06/13 03:42:23;;;;;;;5.97;2.28;;;;;;;;;;4793772;29;20070;-62
2023/06/13 03:44:53;;;;;;;2.67;1.10;;;;;;;;;;4833569;29;20055;-64
2023/06/13 03:47:23;;;;;;;4.70;1.85;;;;;;;;;;4814613;29;20058;-63
2023/06/13 03:49:54;;;;;;;5.18;2.20;;;;;;;;;;4840550;29;20066;-62
2023/06/13 03:52:24;;;;;;;6.22;2.58;;;;;;;;;;4835521;29;20065;-62
2023/06/13 03:54:55;;;;;;;5.35;2.00;;;;;;;;;;4859169;29;20049;-63
2023/06/13 03:57:25;;;;;;;6.13;2.33;;;;;;;;;;4866417;29;20061;-62
2023/06/13 03:59:55;;;;;;;5.05;2.05;;;;;;;;;;4868878;29;21530;-62
2023/06/13 04:02:26;;;;;;;4.65;1.90;;;;;;;;;;4877443;29;20057;-62
2023/06/13 04:04:57;;;;;;;5.38;2.22;;;;;;;;;;4868724;29;20420;-62
2023/06/13 04:07:33;;;;;;;6.30;2.03;;;;;;;;;;4840405;29;20053;-61
2023/06/13 04:10:03;;;;;;;3.05;1.40;;;;;;;;;;4840336;29;20056;-61
2023/06/13 04:12:36;;;;;;;5.00;1.95;;;;;;;;;;4849879;29;20053;-61
2023/06/13 04:15:07;;;;;;;3.42;1.55;;;;;;;;;;4868264;29;20056;-61
2023/06/13 04:17:37;;;;;;;6.47;2.10;;;;;;;;;;4876564;29;20098;-61
2023/06/13 04:20:10;;;;;;;4.93;1.95;;;;;;;;;;4895652;29;20405;-61
2023/06/13 04:22:42;;;;;;;3.80;1.63;;;;;;;;;;4877107;29;20056;-61
2023/06/13 04:25:12;;;;;;;5.63;1.60;;;;;;;;;;4897871;29;20052;-61
2023/06/13 04:27:44;;;;;;;4.60;1.42;;;;;;;;;;4933444;29;20401;-63
2023/06/13 04:30:15;;;;;;;6.13;1.45;;;;;;;;;;4933919;29;20055;-61
2023/06/13 04:32:46;;;;;;;4.45;1.70;;;;;;;;;;4930817;28;20082;-61
2023/06/13 04:35:22;;;;;;;5.10;1.90;;;;;;;;;;4914494;29;20063;-61
2023/06/13 04:37:53;;;;;;;3.72;1.50;;;;;;;;;;4925875;29;20048;-61
2023/06/13 04:40:31;;;;;;;4.47;1.77;;;;;;;;;;4952343;28;20055;-61
2023/06/13 04:43:03;;;;;;;4.43;1.50;;;;;;;;;;4920675;29;20055;-65
2023/06/13 04:45:36;;;;;;;4.93;1.40;;;;;;;;;;4936860;28;20055;-61
2023/06/13 04:48:09;;;;;;;4.47;1.73;;;;;;;;;;4912078;29;20055;-62
2023/06/13 04:50:44;;;;;;;3.53;1.52;;;;;;;;;;4910910;29;20532;-62
2023/06/13 04:53:16;;;;;;;4.53;2.08;;;;;;;;;;4948068;29;20401;-61
2023/06/13 04:55:49;;;;;;;3.72;1.60;;;;;;;;;;4933281;29;20052;-62
2023/06/13 04:58:19;;;;;;;3.75;1.60;;;;;;;;;;4935977;29;20526;-61
2023/06/13 05:00:51;;;;;;;2.83;1.17;;;;;;;;;;4949638;28;20055;-62
2023/06/13 05:03:21;;;;;;;3.40;1.63;;;;;;;;;;4971564;28;20058;-60
2023/06/13 05:05:52;;;;;;;4.97;2.08;;;;;;;;;;4955829;28;20474;-62
2023/06/13 05:08:22;;;;;;;5.93;1.63;;;;;;;;;;4971565;28;20551;-62
2023/06/13 05:10:53;;;;;;;4.32;1.42;;;;;;;;;;5011700;28;20053;-62
2023/06/13 05:13:23;;;;;;;4.93;1.92;;;;;;;;;;5014020;28;20068;-62
2023/06/13 05:15:54;;;;;;;3.85;1.60;;;;;;;;;;5029882;28;20062;-62
2023/06/13 05:18:29;;;;;;;3.63;1.85;;;;;;;;;;5041837;28;20496;-62
2023/06/13 05:21:00;;;;;;;8.75;1.70;;;;;;;;;;5072446;28;20049;-66
2023/06/13 05:23:30;;;;;;;5.25;1.95;;;;;;;;;;5020487;28;20537;-62
2023/06/13 05:26:00;;;;;;;5.13;1.73;;;;;;;;;;5020325;28;20764;-61
2023/06/13 05:28:31;;;;;;;3.63;1.65;;;;;;;;;;5072391;28;20408;-61
2023/06/13 05:31:01;;;;;;;4.82;2.08;;;;;;;;;;5072011;28;20052;-61
2023/06/13 05:33:35;;;;;;;5.00;1.88;;;;;;;;;;5038586;28;20056;-61
2023/06/13 05:36:05;;;;;;;7.72;2.20;;;;;;;;;;5072322;28;20048;-62
2023/06/13 05:38:36;;;;;;;5.97;2.08;;;;;;;;;;4996861;28;20056;-64
2023/06/13 05:41:06;;;;;;;6.82;1.85;;;;;;;;;;4996930;28;20409;-62
2023/06/13 05:43:37;;;;;;;5.07;1.52;;;;;;;;;;5029394;28;20053;-62
2023/06/13 05:46:07;;;;;;;6.97;1.70;;;;;;;;;;5029667;28;20045;-62
2023/06/13 05:48:37;;;;;;;4.45;1.60;;;;;;;;;;5029545;28;20045;-62
2023/06/13 05:51:07;;;;;;;13.80;2.10;;;;;;;;;;4996570;28;20061;-62
2023/06/13 05:53:37;;;;;;;6.40;2.20;;;;;;;;;;5005857;28;20062;-61
2023/06/13 05:56:07;;;;;;;8.57;2.03;;;;;;;;;;4989891;28;20069;-62
2023/06/13 05:58:38;;;;;;;5.35;1.55;;;;;;;;;;4990079;28;20054;-62
2023/06/13 06:01:10;;;;;;;2.92;1.38;;;;;;;;;;4990068;28;20050;-62
2023/06/13 06:03:40;;;;;;;3.22;1.40;;;;;;;;;;4957803;28;20173;-62
2023/06/13 06:06:11;;;;;;;3.03;1.63;;;;;;;;;;4958639;28;20062;-62
2023/06/13 06:08:41;;;;;;;4.82;1.50;;;;;;;;;;4989326;28;20062;-62
2023/06/13 06:11:11;;;;;;;4.38;2.40;;;;;;;;;;4989681;28;20413;-61
2023/06/13 06:13:41;;;;;;;4.75;2.28;;;;;;;;;;4957388;28;20552;-63
2023/06/13 06:16:11;;;;;;;5.45;1.77;;;;;;;;;;5008677;28;20061;-61
2023/06/13 06:18:42;;;;;;;3.95;1.52;;;;;;;;;;5028809;28;20053;-61
2023/06/13 06:21:13;;;;;;;6.07;1.98;;;;;;;;;;4995706;28;20060;-61
2023/06/13 06:23:44;;;;;;;4.90;1.73;;;;;;;;;;5028852;28;20056;-61
2023/06/13 06:26:14;;;;;;;3.55;1.85;;;;;;;;;;5028979;28;20045;-61
2023/06/13 06:28:44;;;;;;;4.60;1.80;;;;;;;;;;5028585;28;20053;-61
2023/06/13 06:31:15;;;;;;;4.40;1.75;;;;;;;;;;5009302;28;20048;-61
2023/06/13 06:33:45;;;;;;;3.80;1.55;;;;;;;;;;5035594;28;20053;-64
2023/06/13 06:36:16;;;;;;;4.20;2.25;;;;;;;;;;5019179;28;20056;-62
2023/06/13 06:38:46;;;;;;;4.50;1.90;;;;;;;;;;5035722;28;20408;-61
2023/06/13 06:41:16;;;;;;;4.63;1.95;;;;;;;;;;5035506;28;20057;-61
2023/06/13 06:43:47;;;;;;;5.75;2.00;;;;;;;;;;5036352;28;20408;-61
2023/06/13 06:46:18;;;;;;;4.70;1.80;;;;;;;;;;5028580;28;20046;-62
2023/06/13 06:48:50;;;;;;;3.78;1.50;;;;;;;;;;5029101;28;20216;-61
2023/06/13 06:51:20;;;;;;;2.67;1.40;;;;;;;;;;5028360;28;20049;-62
2023/06/13 06:53:55;;;;;;;1.85;0.57;;;;;;;;;;5011926;28;20049;-64
2023/06/13 06:56:26;;;;;;;3.95;1.60;;;;;;;;;;5008699;28;20050;-61
2023/06/13 06:58:56;;;;;;;5.45;1.42;;;;;;;;;;5008433;28;20073;-61
2023/06/13 07:01:26;;;;;;;3.83;1.50;;;;;;;;;;4976372;28;20058;-61
2023/06/13 07:03:57;;;;;;;4.43;2.00;;;;;;;;;;4976080;28;20190;-62
2023/06/13 07:06:27;;;;;;;3.05;1.75;;;;;;;;;;4992833;28;20058;-61
2023/06/13 07:08:57;;;;;;;4.97;1.70;;;;;;;;;;5008554;28;20049;-62
2023/06/13 07:11:28;;;;;;;5.30;1.73;;;;;;;;;;4975965;28;20046;-62
2023/06/13 07:13:59;;;;;;;9.52;1.80;;;;;;;;;;5008685;28;20052;-61
2023/06/13 07:16:29;;;;;;;7.63;2.03;;;;;;;;;;5012539;28;20552;-61
2023/06/13 07:19:00;;;;;;;5.10;2.05;;;;;;;;;;5047971;28;20060;-61
2023/06/13 07:21:30;;;;;;;5.80;2.30;;;;;;;;;;5048277;28;20056;-62
2023/06/13 07:24:00;;;;;;;1.75;1.08;;;;;;;;;;5048381;28;20065;-61
2023/06/13 07:26:36;;;;;;;6.65;2.20;;;;;;;;;;5008361;28;20054;-62
2023/06/13 07:29:06;;;;;;;2.50;1.40;;;;;;;;;;4975949;28;20054;-61
2023/06/13 07:31:37;;;;;;;3.15;1.42;;;;;;;;;;4976092;28;20050;-61
2023/06/13 07:34:07;;;;;;;2.58;1.13;;;;;;;;;;4982493;28;20240;-62
2023/06/13 07:36:56;;;;;;;4.10;1.77;;;;;;;;;;5032003;28;20517;-61
2023/06/13 07:39:26;;;;;;;4.80;2.03;;;;;;;;;;5031686;28;20072;-61
2023/06/13 07:41:56;;;;;;;6.28;1.83;;;;;;;;;;5031874;28;20041;-61
2023/06/13 07:44:29;;;;;;;4.25;1.65;;;;;;;;;;5031490;28;20505;-61
2023/06/13 07:46:59;;;;;;;3.40;1.40;;;;;;;;;;5031972;28;20049;-61
2023/06/13 07:49:30;;;;;;;4.03;1.52;;;;;;;;;;4982531;28;20064;-63
2023/06/13 07:52:01;;;;;;;5.13;1.60;;;;;;;;;;4998604;28;20579;-62
2023/06/13 07:54:31;;;;;;;4.32;1.58;;;;;;;;;;5031623;28;20192;-61
2023/06/13 07:57:01;;;;;;;5.00;2.08;;;;;;;;;;4998992;28;20061;-62
2023/06/13 07:59:47;;;;;;;3.00;1.67;;;;;;;;;;5031446;28;20572;-62
2023/06/13 08:02:17;;;;;;;8.27;2.35;;;;;;;;;;4998571;28;20097;-62
2023/06/13 08:04:48;;;;;;;5.47;1.70;;;;;;;;;;5046337;28;20072;-62
2023/06/13 08:07:22;;;;;;;4.22;1.27;;;;;;;;;;5018656;28;20060;-64
2023/06/13 08:09:53;;;;;;;3.80;1.33;;;;;;;;;;5034951;28;20515;-61
2023/06/13 08:12:23;;;;;;;4.60;2.00;;;;;;;;;;5053601;28;20366;-61
2023/06/13 08:14:53;;;;;;;5.05;1.52;;;;;;;;;;5053695;28;20037;-61
2023/06/13 08:17:26;;;;;;;2.83;1.17;;;;;;;;;;5018464;28;20052;-62
2023/06/13 08:19:56;;;;;;;4.60;1.80;;;;;;;;;;5018419;28;20053;-61
2023/06/13 08:22:27;;;;;;;4.90;1.85;;;;;;;;;;5053494;28;20037;-62
2023/06/13 08:24:57;;;;;;;4.57;1.77;;;;;;;;;;5053226;28;20044;-61
2023/06/13 08:27:28;;;;;;;2.72;1.10;;;;;;;;;;5018528;28;20071;-61
2023/06/13 08:30:01;;;;;;;8.32;1.85;;;;;;;;;;5053085;28;20048;-62
2023/06/13 08:32:32;;;;;;;5.15;1.60;;;;;;;;;;5018212;28;20053;-62
2023/06/13 08:35:03;;;;;;;4.80;1.60;;;;;;;;;;5030466;28;20057;-62
2023/06/13 08:37:35;;;;;;;6.75;2.03;;;;;;;;;;4998209;28;20402;-63
2023/06/13 08:40:09;;;;;;;3.85;1.55;;;;;;;;;;5014448;28;20050;-62
2023/06/13 08:42:40;;;;;;;2.97;1.70;;;;;;;;;;4967924;28;20553;-62
2023/06/13 08:45:12;;;;;;;3.40;1.52;;;;;;;;;;5030566;28;20413;-62
2023/06/13 08:47:46;;;;;;;4.60;1.20;;;;;;;;;;5014587;28;20057;-62
2023/06/13 08:50:24;;;;;;;4.47;2.13;;;;;;;;;;4994396;28;20084;-61
2023/06/13 08:52:55;;;;;;;5.72;2.00;;;;;;;;;;4962368;28;20062;-62
2023/06/13 08:55:29;;;;;;;5.13;2.08;;;;;;;;;;5010602;28;20069;-62
2023/06/13 08:58:21;;;;;;;4.78;1.80;;;;;;;;;;4984032;28;20077;-61
2023/06/13 09:00:51;;;;;;;16.27;6.60;;;;;;;;;;4962266;28;20058;-62
2023/06/13 09:03:22;;;;;;;5.43;2.17;;;;;;;;;;5010525;28;20057;-62
2023/06/13 09:05:52;;;;;;;7.68;2.30;;;;;;;;;;5010728;28;20065;-61
2023/06/13 09:08:25;;;;;;;3.35;1.77;;;;;;;;;;4961452;28;20054;-63
2023/06/13 09:11:00;;;;;;;6.28;2.88;;;;;;;;;;4994990;28;20053;-62
2023/06/13 09:13:31;;;;;;;5.78;1.77;;;;;;;;;;5043324;28;20056;-62
2023/06/13 09:16:03;;;;;;;6.32;2.60;;;;;;;;;;5001327;28;20052;-62
2023/06/13 09:18:39;;;;;;;3.20;1.45;;;;;;;;;;5016614;28;20049;-62
2023/06/13 09:21:13;;;;;;;5.60;2.03;;;;;;;;;;4958410;28;20047;-62
2023/06/13 09:23:43;;;;;;;2.50;1.40;;;;;;;;;;4990619;28;20422;-63
2023/06/13 09:26:17;;;;;;;4.75;1.63;;;;;;;;;;4990482;28;20407;-62
2023/06/13 09:28:47;;;;;;;2.78;1.45;;;;;;;;;;4961995;28;20132;-61
2023/06/13 09:31:18;;;;;;;2.40;1.33;;;;;;;;;;5010237;28;20605;-62
2023/06/13 09:33:48;;;;;;;2.30;1.23;;;;;;;;;;5010047;28;20050;-62
2023/06/13 09:36:19;;;;;;;2.83;0.98;;;;;;;;;;4977594;28;20062;-62
2023/06/13 09:38:50;;;;;;;3.50;1.27;;;;;;;;;;4977840;28;20054;-62
2023/06/13 09:41:21;;;;;;;3.10;1.35;;;;;;;;;;5009906;28;20057;-62
2023/06/13 09:43:52;;;;;;;4.65;1.77;;;;;;;;;;5009482;28;20053;-62
2023/06/13 09:46:24;;;;;;;8.05;1.85;;;;;;;;;;4962395;28;20066;-62
2023/06/13 09:48:55;;;;;;;2.72;1.05;;;;;;;;;;4977299;28;20057;-61
2023/06/13 09:51:29;;;;;;;5.38;1.67;;;;;;;;;;4930712;28;20070;-63
2023/06/13 09:54:00;;;;;;;2.35;1.30;;;;;;;;;;5009850;28;20433;-62
2023/06/13 09:56:30;;;;;;;4.07;1.50;;;;;;;;;;4976769;28;20062;-61
2023/06/13 09:59:01;;;;;;;5.13;1.77;;;;;;;;;;5049720;28;20041;-62
2023/06/13 10:01:34;;;;;;;2.58;1.25;;;;;;;;;;5032742;28;20060;-62
2023/06/13 10:04:05;;;;;;;3.22;1.48;;;;;;;;;;5032808;28;20053;-62
2023/06/13 10:06:36;;;;;;;3.53;1.73;;;;;;;;;;5033052;28;20052;-61
2023/06/13 10:09:06;;;;;;;4.13;1.50;;;;;;;;;;5016525;28;20061;-62
2023/06/13 10:11:40;;;;;;;3.90;1.17;;;;;;;;;;5016569;28;20064;-61
2023/06/13 10:14:22;;;;;;;2.65;1.30;;;;;;;;;;5001055;28;20053;-61
2023/06/13 10:17:06;;;;;;;2.28;1.13;;;;;;;;;;5051314;28;20048;-61
2023/06/13 10:19:40;;;;;;;2.83;1.05;;;;;;;;;;4999263;28;20048;-63
2023/06/13 10:22:10;;;;;;;;;;;;;;;;;;5051754;28;20049;-61
2023/06/13 10:24:41;;;;;;;1.85;1.15;;;;;;;;;;5050859;28;19924;-62
2023/06/13 10:27:17;;;;;;;14.00;1.92;;;;;;;;;;5050825;28;20049;-62
2023/06/13 10:30:12;;;;;;;4.50;1.80;;;;;;;;;;5032972;28;20710;-63
2023/06/13 10:33:13;;;;;;;2.45;1.27;;;;;;;;;;5031419;28;20117;-62
2023/06/13 10:36:25;;;;;;;3.00;1.45;;;;;;;;;;5048500;28;20079;-62
2023/06/13 10:39:22;;;;;;;4.10;1.38;;;;;;;;;;5035069;28;20057;-62
2023/06/13 10:41:58;;;;;;;2.45;0.63;;;;;;;;;;5048559;28;20044;-62
2023/06/13 10:44:42;;;;;;;9.18;2.67;;;;;;;;;;5015062;28;20060;-62
2023/06/13 10:47:17;;;;;;;7.55;2.30;;;;;;;;;;5048448;28;20404;-62
2023/06/13 10:49:49;;;;;;;8.63;2.47;;;;;;;;;;5008236;28;20053;-62
2023/06/13 10:52:20;;;;;;;5.70;2.45;;;;;;;;;;4975939;28;20101;-62
2023/06/13 10:54:59;;;;;;;4.30;1.70;;;;;;;;;;4976048;28;20069;-62
2023/06/13 10:57:51;;;;;;;5.95;2.10;;;;;;;;;;5008339;28;20081;-62
2023/06/13 11:00:31;;;;;;;3.90;1.88;;;;;;;;;;4975908;28;20493;-62
2023/06/13 11:03:06;;;;;;;9.27;2.65;;;;;;;;;;4992417;28;20386;-62
2023/06/13 11:05:45;;;;;;;9.95;2.70;;;;;;;;;;4991864;28;20470;-62
2023/06/13 11:08:22;;;;;;;8.15;2.65;;;;;;;;;;4995386;28;20057;-61
2023/06/13 11:10:55;;;;;;;5.80;2.00;;;;;;;;;;4999998;28;20052;-62
2023/06/13 11:13:31;;;;;;;3.10;1.60;;;;;;;;;;5032210;28;20113;-63
2023/06/13 11:16:35;;;;;;;3.38;1.42;;;;;;;;;;5032143;28;20176;-62
2023/06/13 11:19:29;;;;;;;5.82;2.22;;;;;;;;;;4999928;28;20049;-62
2023/06/13 11:21:59;;;;;;;3.08;1.17;;;;;;;;;;4975987;28;20050;-62
2023/06/13 11:24:34;;;;;;;7.80;2.30;;;;;;;;;;4960011;28;20053;-62
2023/06/13 11:27:06;;;;;;;5.50;2.00;;;;;;;;;;4973557;28;20060;-63
2023/06/13 11:29:38;;;;;;;4.20;1.48;;;;;;;;;;4998940;28;20057;-61
2023/06/13 11:32:10;;;;;;;5.13;1.55;;;;;;;;;;5031913;28;20537;-63
2023/06/13 11:34:48;;;;;;;4.50;2.00;;;;;;;;;;4951223;28;20053;-62
2023/06/13 11:37:31;;;;;;;1.77;0.82;;;;;;;;;;5032134;28;20045;-62
2023/06/13 11:40:04;;;;;;;15.80;4.40;;;;;;;;;;5031620;28;20056;-61
2023/06/13 11:42:47;;;;;;;3.50;1.02;;;;;;;;;;5031608;28;20065;-62
2023/06/13 11:45:17;;;;;;;7.05;2.78;;;;;;;;;;5031895;28;20057;-62
2023/06/13 11:48:00;;;;;;;8.40;3.40;;;;;;;;;;4982331;28;20128;-62
2023/06/13 11:50:32;;;;;;;4.38;2.10;;;;;;;;;;5031274;28;20409;-62
2023/06/13 11:53:09;;;;;;;2.92;1.13;;;;;;;;;;4998923;28;20057;-63
2023/06/13 11:55:40;;;;;;;23.67;7.55;;;;;;;;;;4999075;28;20054;-62
2023/06/13 11:58:11;;;;;;;7.97;1.90;;;;;;;;;;5014928;28;20057;-63
2023/06/13 12:00:53;;;;;;;3.63;1.40;;;;;;;;;;5049951;28;20052;-62
2023/06/13 12:03:25;;;;;;;2.92;1.23;;;;;;;;;;5003768;28;20049;-62
2023/06/13 12:05:57;;;;;;;4.90;2.22;;;;;;;;;;5053489;28;20485;-63
2023/06/13 12:08:27;;;;;;;770.85;236.73;;;;;;;;;;5018594;28;20057;-63
2023/06/13 12:10:57;;;;;;;11.85;6.97;;;;;;;;;;5053592;28;20048;-62
2023/06/13 12:13:36;;;;;;;16.90;9.13;;;;;;;;;;5035795;28;20068;-63
2023/06/13 12:16:07;;;;;;;8.10;4.20;;;;;;;;;;5053434;28;20048;-63
2023/06/13 12:18:37;;;;;;;6.05;2.35;;;;;;;;;;5052884;28;20052;-62
2023/06/13 12:21:07;;;;;;;13.10;6.82;;;;;;;;;;5053489;28;20389;-62
2023/06/13 12:23:37;;;;;;;6.57;3.38;;;;;;;;;;5017947;28;20049;-62
2023/06/13 12:26:08;;;;;;;3.30;1.48;;;;;;;;;;5034860;28;20080;-63
2023/06/13 12:28:41;;;;;;;3.50;1.40;;;;;;;;;;5030810;28;20046;-63
2023/06/13 12:31:12;;;;;;;9.27;4.50;;;;;;;;;;5014554;28;20058;-63
2023/06/13 12:33:42;;;;;;;3.53;1.13;;;;;;;;;;5030679;28;20498;-63
2023/06/13 12:36:15;;;;;;;10.85;6.50;;;;;;;;;;4997708;28;20049;-61
2023/06/13 12:38:46;;;;;;;4.00;1.48;;;;;;;;;;4998532;28;20049;-62
2023/06/13 12:41:17;;;;;;;5.85;1.90;;;;;;;;;;5030531;28;20054;-61
2023/06/13 12:43:48;;;;;;;20.67;14.88;;;;;;;;;;5030962;28;20049;-64
2023/06/13 12:46:19;;;;;;;7.70;1.77;;;;;;;;;;5030198;28;20068;-63
2023/06/13 12:48:51;;;;;;;3.30;1.33;;;;;;;;;;4998018;28;20464;-63
2023/06/13 12:51:30;;;;;;;4.05;1.98;;;;;;;;;;4997621;28;20061;-62
2023/06/13 12:54:18;;;;;;;20.17;13.95;;;;;;;;;;5008602;28;20056;-62
2023/06/13 12:57:02;;;;;;;5.28;2.53;;;;;;;;;;5033023;28;20512;-63
2023/06/13 12:59:37;;;;;;;4.88;2.38;;;;;;;;;;5049417;28;20594;-64
2023/06/13 13:02:12;;;;;;;3.13;1.20;;;;;;;;;;5049724;28;20067;-63
2023/06/13 13:04:44;;;;;;;8.07;2.70;;;;;;;;;;5000350;28;20064;-64
2023/06/13 13:07:15;;;;;;;6.03;2.22;;;;;;;;;;5032499;28;20060;-64
2023/06/13 13:09:45;;;;;;;3.60;1.30;;;;;;;;;;5020473;28;20501;-63
2023/06/13 13:12:16;;;;;;;6.43;2.15;;;;;;;;;;5071194;28;20048;-64
2023/06/13 13:14:46;;;;;;;7.15;2.85;;;;;;;;;;5053757;28;20053;-64
2023/06/13 13:17:17;;;;;;;4.70;1.58;;;;;;;;;;5036974;28;20056;-64
2023/06/13 13:19:53;;;;;;;9.35;3.20;;;;;;;;;;5071532;28;20412;-63
2023/06/13 13:22:23;;;;;;;20.02;10.30;;;;;;;;;;5071720;28;20044;-64
2023/06/13 13:24:57;;;;;;;5.82;2.20;;;;;;;;;;5071455;28;20048;-65
2023/06/13 13:27:27;;;;;;;178.90;119.15;;;;;;;;;;5020251;28;20383;-64
2023/06/13 13:29:57;;;;;;;5.72;2.50;;;;;;;;;;5051669;28;20409;-65
2023/06/13 13:32:29;;;;;;;7.88;2.95;;;;;;;;;;5052613;28;20115;-65
2023/06/13 13:35:01;;;;;;;2.95;1.38;;;;;;;;;;5071405;28;20451;-65
2023/06/13 13:37:32;;;;;;;7.55;3.28;;;;;;;;;;5036004;28;20056;-65
2023/06/13 13:40:04;;;;;;;4.65;2.47;;;;;;;;;;5069172;28;20049;-65
2023/06/13 13:42:36;;;;;;;4.50;2.15;;;;;;;;;;5020521;28;20067;-65
2023/06/13 13:45:08;;;;;;;13.18;5.13;;;;;;;;;;5052975;28;20525;-63
2023/06/13 13:47:38;;;;;;;14.27;4.97;;;;;;;;;;5071253;28;20041;-64
2023/06/13 13:50:11;;;;;;;5.85;2.22;;;;;;;;;;5052266;28;20056;-64
2023/06/13 13:52:41;;;;;;;5.70;2.17;;;;;;;;;;5049687;28;20068;-65
2023/06/13 13:55:13;;;;;;;6.95;2.13;;;;;;;;;;5051231;28;20386;-65
2023/06/13 13:57:44;;;;;;;;;;;;;;;;;;5032996;28;20057;-63
2023/06/13 14:00:15;;;;;;;6.03;3.00;;;;;;;;;;5032138;28;19932;-64
2023/06/13 14:02:45;;;;;;;8.43;2.58;;;;;;;;;;4999206;28;20397;-65
2023/06/13 14:05:15;;;;;;;47.70;15.93;;;;;;;;;;5051147;28;20048;-65
2023/06/13 14:07:46;;;;;;;8.95;2.90;;;;;;;;;;5051157;28;20041;-65
2023/06/13 14:10:16;;;;;;;5.38;3.17;;;;;;;;;;4998924;28;20048;-64
2023/06/13 14:12:50;;;;;;;5.95;2.65;;;;;;;;;;5050038;28;20045;-63
2023/06/13 14:15:20;;;;;;;6.45;2.67;;;;;;;;;;4999279;28;20053;-63
2023/06/13 14:17:52;;;;;;;8.13;3.67;;;;;;;;;;5051056;28;20112;-63
2023/06/13 14:20:22;;;;;;;11.40;6.97;;;;;;;;;;5032508;28;20398;-63
2023/06/13 14:22:52;;;;;;;5.32;2.30;;;;;;;;;;4999449;28;20056;-63
2023/06/13 14:25:23;;;;;;;4.38;1.83;;;;;;;;;;5050757;28;20401;-63
2023/06/13 14:27:53;;;;;;;7.18;2.97;;;;;;;;;;5032326;28;20053;-63
2023/06/13 14:30:24;;;;;;;5.82;1.98;;;;;;;;;;5050844;28;20056;-63
2023/06/13 14:32:55;;;;;;;6.10;1.88;;;;;;;;;;5032665;28;20683;-64
2023/06/13 14:35:25;;;;;;;49.42;31.55;;;;;;;;;;5050901;28;20041;-63
2023/06/13 14:37:55;;;;;;;10.40;6.45;;;;;;;;;;5015608;28;20044;-62
2023/06/13 14:40:27;;;;;;;10.15;5.10;;;;;;;;;;5032185;28;20061;-62
2023/06/13 14:42:57;;;;;;;5.97;3.05;;;;;;;;;;5031842;28;20049;-62
2023/06/13 14:45:28;;;;;;;9.55;2.92;;;;;;;;;;5050732;28;20044;-63
2023/06/13 14:47:58;;;;;;;5.93;1.77;;;;;;;;;;5050907;28;20045;-62
2023/06/13 14:50:29;;;;;;;6.38;2.80;;;;;;;;;;5015345;28;20067;-61
2023/06/13 14:52:59;;;;;;;17.95;8.32;;;;;;;;;;5048530;28;20049;-61
2023/06/13 14:55:29;;;;;;;18.38;10.50;;;;;;;;;;5050760;28;20044;-62
2023/06/13 14:58:00;;;;;;;5.57;2.92;;;;;;;;;;5015939;28;20409;-61
2023/06/13 15:00:31;;;;;;;6.85;2.15;;;;;;;;;;5050406;28;20059;-61
2023/06/13 15:03:02;;;;;;;7.18;3.78;;;;;;;;;;5015269;28;20087;-62
2023/06/13 15:05:33;;;;;;;4.30;1.67;;;;;;;;;;5050582;28;20053;-61
2023/06/13 15:08:03;;;;;;;7.28;2.55;;;;;;;;;;5050602;28;20048;-62
2023/06/13 15:10:33;;;;;;;5.75;2.47;;;;;;;;;;4998977;28;20080;-62
2023/06/13 15:13:03;;;;;;;22.02;7.93;;;;;;;;;;5050621;28;20041;-61
2023/06/13 15:15:34;;;;;;;3.90;1.60;;;;;;;;;;5050033;28;20041;-62